Euless, TX (76040)

4:20 AM CDT on July 03, 2015 (GMT -0500)
Oakwood Terrace North | | Change Station
CLOSE
Current Station
Personal Weather Station
Location: Euless, TX
Elevation: 582 ft
Nearby Weather Stations

Elev 582 ft 32.83 °N, 97.12 °W | Updated 20 seconds ago

Partly Cloudy
Partly Cloudy
80.6 °F
Feels Like 85 °F
N
0.0
Wind Variable Wind from WSW
Gusts 0.0 mph

Today
High -- | Low -- °F
--% Chance of Precip.
Yesterday
High -- | Low -- °F
Precip. -- in
6:24 AM 8:40 PM
Full, 98% visible
Pressure 29.90 in
Visibility 10.0 miles
Clouds Scattered Clouds 18000 ft
Overcast 30000 ft
Heat Index 85 °F
Dew Point 73 °F
Humidity 78%
Rainfall 0.00 in
Snow Depth Not available.
UV 0 out of 12
Pollen 5.20 out of 12
Air Quality Not available.
Flu Activity Not available.
METAR KDFW 030853Z 21012KT 10SM SCT180 OVC300 27/22 A2993 RMK AO2 SLP125 T02720217 51003

More Conditions Fewer Conditions

Pressure 29.90 in
Visibility 10.0 miles
Clouds Scattered Clouds 18000 ft
Overcast 30000 ft
Heat Index 85 °F
Dew Point 73 °F
Humidity 78%
Rainfall 0.00 in
Snow Depth Not available.
UV 0 out of 12
Pollen 5.20 out of 12
Air Quality Not available.
Flu Activity Not available.
METAR KDFW 030853Z 21012KT 10SM SCT180 OVC300 27/22 A2993 RMK AO2 SLP125 T02720217 51003

More Conditions Fewer Conditions

10-Day Weather Forecast

×

Almanac

Astronomy

Jul. 03, 2015 Rise Set
Actual Time
Civil Twilight
Nautical Twilight
Astronomical Twilight
Moon
Length of Visible Light
Length of Day
Tomorrow will be .
, % of the Moon is Illuminated

Today's Extremes

State Highs State Lows

Community

WunderPhotos

Upload Photos

1,834,647 photos uploaded!

WunderBlogs® & News

Nearby

Air Quality

  Air Quality AQ Index Pollutant
Not available.

Snow Depth

Station Depth Elevation

Earthquake Activity

City Distance Mag. Time & Date
Minimum magnitude displayed is 2.5.

Coastal Water Temperatures

Place Temperature

Stations

Nearby Weather Stations

Station Location Temp. Windchill Dew Point Humidity Wind Precip. Elev Updated Type